Pendaries, New Mexico
Current Conditions -  °F | °C
As of 5:53 PM on Thursday 18 Dec 2014 (Local Time) from KLVS Reporting Station
Overcast Overcast  
Wind Chill: 24°   Ceiling: 12000
Heat Index: 32°   Visibility: 10mi
Dew Point: 19°   Wind: 9mph
Humidity: 59%   Direction: 160°SSE
Pressure: 30.02"   Gusts: NA
Location:  35.8214°N, 105.333°W
Report Text: KLVS 190053Z AUTO 16008KT 10SM OVC120 00/M07 A3002 RMK AO2 SLP170 T00001072
Loading
Personal Weather Stations






























Interactive Weather Map New forecast layout! Learn more

10-Day Weather Forecast

Advertisements
Track Severe Weather on mobile